Fort Smith, AR

7:55 PM CST on November 27, 2014 (GMT -0600)
LCEM - Arkoma Elem. School | Change Station
CLOSE
Current Station
Personal Weather Station
Location: Arkoma, OK
Elevation: 597 ft
Nearby Weather Stations

Elev 597 ft 35.35 °N, 94.44 °W | Updated 4 seconds ago

Clear
Clear
43.0 °F
Feels Like 41 °F
N
4.0
Wind Variable Wind from NE
Gusts 6.0 mph

Today
High -- | Low -- °F
--% Chance of Precip.
Yesterday
High -- | Low -- °F
Precip. -- in
7:04 AM 5:05 PM
Waxing Crescent, 35% visible
Pressure 30.43 in
Visibility 10.0 miles
Clouds Clear
Windchill 41 °F
Dew Point 28 °F
Humidity 54%
Rainfall 0.00 in
Snow Depth Not available.
UV 12.2 out of 12
Pollen 2.40 out of 12
Air Quality Not available.
Flu Activity Not available.
METAR KFSM 280053Z 05005KT 10SM CLR 04/M03 A3042 RMK AO2 SLP303 T00441028

More Conditions Fewer Conditions

Pressure 30.43 in
Visibility 10.0 miles
Clouds Clear
Windchill 41 °F
Dew Point 28 °F
Humidity 54%
Rainfall 0.00 in
Snow Depth Not available.
UV 12.2 out of 12
Pollen 2.40 out of 12
Air Quality Not available.
Flu Activity Not available.
METAR KFSM 280053Z 05005KT 10SM CLR 04/M03 A3042 RMK AO2 SLP303 T00441028

More Conditions Fewer Conditions

10-Day Weather Forecast

Almanac

Astronomy

Nov. 27, 2014 Rise Set
Actual Time
Civil Twilight
Nautical Twilight
Astronomical Twilight
Moon
Length of Visible Light
Length of Day
Tomorrow will be .
, % of the Moon is Illuminated

Today's Extremes

State Highs State Lows

Community

WunderPhotos

Upload Photos

1,774,151 photos uploaded!

WunderBlogs® & News

Nearby

Air Quality

  Air Quality AQ Index Pollutant
Not available.

Snow Depth

Station Depth Elevation

Earthquake Activity

City Distance Mag. Time & Date
Minimum magnitude displayed is 2.5.

Coastal Water Temperatures

Place Temperature

Nearby Weather Stations